PRIVATE WETTERSTATION BILLIGHEIM-ALLFELD                       ZURCK
Wetterdaten: Freitag, 16.05.2014
Datum Zeit Temp. A. Temp. A. min Temp. A. max Feuchte A. Luftdruck Regen Wind Richtung Richtung Sonnenschein ET Solar Taupunkt Windchill Windben Empfang
16.05.2014 00:00 8,2 C 8,2 C 8,2 C 87 % 1031,3 hPa 0,0 l/m 0,0 km/h (0 Bft) N-NW 337 0 min 0,000 mm 0 W/m 6,2 C 8,2 C 4,8 km/h (1 Bft) 98 %
16.05.2014 00:10 8,3 C 8,2 C 8,3 C 87 % 1031,2 hPa 0,0 l/m 0,0 km/h (0 Bft) N-NW 337 0 min 0,000 mm 0 W/m 6,3 C 8,3 C 1,6 km/h (1 Bft) 97 %
16.05.2014 00:20 8,3 C 8,3 C 8,3 C 87 % 1031,2 hPa 0,0 l/m 0,0 km/h (0 Bft) N-NW 337 0 min 0,000 mm 0 W/m 6,3 C 8,3 C 3,2 km/h (1 Bft) 98 %
16.05.2014 00:30 8,3 C 8,3 C 8,3 C 87 % 1031,2 hPa 0,0 l/m 0,0 km/h (0 Bft) N-NW 337 0 min 0,000 mm 0 W/m 6,3 C 8,3 C 1,6 km/h (1 Bft) 98 %
16.05.2014 00:40 8,4 C 8,3 C 8,4 C 87 % 1031,2 hPa 0,0 l/m 0,0 km/h (0 Bft) N-NW 337 0 min 0,000 mm 0 W/m 6,4 C 8,4 C 3,2 km/h (1 Bft) 98 %
16.05.2014 00:50 8,5 C 8,4 C 8,5 C 87 % 1031,1 hPa 0,0 l/m 0,0 km/h (0 Bft) N-NW 337 0 min 0,000 mm 0 W/m 6,5 C 8,5 C 3,2 km/h (1 Bft) 97 %
16.05.2014 01:00 8,6 C 8,5 C 8,6 C 87 % 1031,0 hPa 0,0 l/m 0,0 km/h (0 Bft) N 360 0 min 0,000 mm 0 W/m 6,6 C 8,6 C 3,2 km/h (1 Bft) 97 %
16.05.2014 01:10 8,6 C 8,6 C 8,6 C 87 % 1030,8 hPa 0,0 l/m 0,0 km/h (0 Bft) N 360 0 min 0,000 mm 0 W/m 6,6 C 8,6 C 3,2 km/h (1 Bft) 98 %
16.05.2014 01:20 8,4 C 8,4 C 8,6 C 87 % 1030,8 hPa 0,0 l/m 0,0 km/h (0 Bft) N 360 0 min 0,000 mm 0 W/m 6,4 C 8,4 C 1,6 km/h (1 Bft) 98 %
16.05.2014 01:30 8,2 C 8,2 C 8,4 C 87 % 1030,7 hPa 0,0 l/m 0,0 km/h (0 Bft) N 360 0 min 0,000 mm 0 W/m 6,2 C 8,2 C 4,8 km/h (1 Bft) 89 %
16.05.2014 01:40 7,9 C 7,9 C 8,2 C 87 % 1030,6 hPa 0,0 l/m 0,0 km/h (0 Bft) N-NW 337 0 min 0,000 mm 0 W/m 5,9 C 7,9 C 4,8 km/h (1 Bft) 98 %
16.05.2014 01:50 7,8 C 7,8 C 7,9 C 87 % 1030,6 hPa 0,0 l/m 0,0 km/h (0 Bft) N-NW 337 0 min 0,000 mm 0 W/m 5,8 C 7,8 C 1,6 km/h (1 Bft) 98 %
16.05.2014 02:00 7,7 C 7,7 C 7,8 C 87 % 1030,5 hPa 0,2 l/m 0,0 km/h (0 Bft) N-NW 337 0 min 0,000 mm 0 W/m 5,7 C 7,7 C 1,6 km/h (1 Bft) 98 %
16.05.2014 02:10 7,8 C 7,7 C 7,8 C 87 % 1030,3 hPa 0,2 l/m 0,0 km/h (0 Bft) N-NW 337 0 min 0,000 mm 0 W/m 5,8 C 7,8 C 4,8 km/h (1 Bft) 98 %
16.05.2014 02:20 7,9 C 7,8 C 8,0 C 87 % 1030,3 hPa 0,0 l/m 0,0 km/h (0 Bft) N-NW 337 0 min 0,000 mm 0 W/m 5,9 C 7,9 C 4,8 km/h (1 Bft) 97 %
16.05.2014 02:30 8,0 C 8,0 C 8,0 C 87 % 1030,3 hPa 0,0 l/m 0,0 km/h (0 Bft) NW 315 0 min 0,000 mm 0 W/m 6,0 C 8,0 C 4,8 km/h (1 Bft) 98 %
16.05.2014 02:40 7,9 C 7,9 C 8,0 C 87 % 1030,2 hPa 0,0 l/m 0,0 km/h (0 Bft) NW 315 0 min 0,000 mm 0 W/m 5,9 C 7,9 C 3,2 km/h (1 Bft) 98 %
16.05.2014 02:50 7,8 C 7,8 C 7,9 C 88 % 1030,1 hPa 0,0 l/m 0,0 km/h (0 Bft) NW 315 0 min 0,000 mm 0 W/m 5,9 C 7,8 C 3,2 km/h (1 Bft) 97 %
16.05.2014 03:00 7,8 C 7,8 C 7,8 C 88 % 1030,1 hPa 0,0 l/m 0,0 km/h (0 Bft) N-NW 337 0 min 0,000 mm 0 W/m 5,9 C 7,8 C 4,8 km/h (1 Bft) 98 %
16.05.2014 03:10 7,7 C 7,7 C 7,8 C 87 % 1029,9 hPa 0,0 l/m 0,0 km/h (0 Bft) N-NW 337 0 min 0,000 mm 0 W/m 5,7 C 7,7 C 1,6 km/h (1 Bft) 98 %
16.05.2014 03:20 7,5 C 7,5 C 7,7 C 88 % 1029,8 hPa 0,0 l/m 0,0 km/h (0 Bft) NW 315 0 min 0,000 mm 0 W/m 5,6 C 7,5 C 6,4 km/h (2 Bft) 98 %
16.05.2014 03:30 7,2 C 7,2 C 7,5 C 87 % 1029,8 hPa 0,0 l/m 0,0 km/h (0 Bft) NW 315 0 min 0,000 mm 0 W/m 5,2 C 7,2 C 6,4 km/h (2 Bft) 98 %
16.05.2014 03:40 6,9 C 6,9 C 7,2 C 87 % 1029,8 hPa 0,0 l/m 0,0 km/h (0 Bft) NW 315 0 min 0,000 mm 0 W/m 4,9 C 6,9 C 1,6 km/h (1 Bft) 98 %
16.05.2014 03:50 6,8 C 6,8 C 6,9 C 88 % 1029,7 hPa 0,0 l/m 0,0 km/h (0 Bft) N 0 0 min 0,000 mm 0 W/m 5,0 C 6,8 C 0,0 km/h (0 Bft) 97 %
16.05.2014 04:00 6,6 C 6,6 C 6,8 C 88 % 1029,6 hPa 0,0 l/m 0,0 km/h (0 Bft) N 0 0 min 0,000 mm 0 W/m 4,8 C 6,6 C 0,0 km/h (0 Bft) 98 %
16.05.2014 04:10 6,6 C 6,6 C 6,7 C 88 % 1029,5 hPa 0,0 l/m 0,0 km/h (0 Bft) N 0 0 min 0,000 mm 0 W/m 4,8 C 6,6 C 0,0 km/h (0 Bft) 97 %
16.05.2014 04:20 6,4 C 6,4 C 6,6 C 88 % 1029,5 hPa 0,0 l/m 0,0 km/h (0 Bft) N 0 0 min 0,000 mm 0 W/m 4,6 C 6,4 C 0,0 km/h (0 Bft) 98 %
16.05.2014 04:30 6,2 C 6,2 C 6,4 C 88 % 1029,4 hPa 0,0 l/m 0,0 km/h (0 Bft) NW 315 0 min 0,000 mm 0 W/m 4,4 C 6,2 C 1,6 km/h (1 Bft) 98 %
16.05.2014 04:40 6,0 C 6,0 C 6,2 C 88 % 1029,4 hPa 0,0 l/m 0,0 km/h (0 Bft) N 0 0 min 0,000 mm 0 W/m 4,2 C 6,0 C 0,0 km/h (0 Bft) 98 %
16.05.2014 04:50 5,8 C 5,8 C 6,0 C 88 % 1029,3 hPa 0,0 l/m 0,0 km/h (0 Bft) N 0 0 min 0,000 mm 0 W/m 4,0 C 5,8 C 0,0 km/h (0 Bft) 98 %
16.05.2014 05:00 5,7 C 5,7 C 5,8 C 88 % 1029,4 hPa 0,0 l/m 0,0 km/h (0 Bft) N 0 0 min 0,000 mm 0 W/m 3,9 C 5,7 C 0,0 km/h (0 Bft) 97 %
16.05.2014 05:10 5,6 C 5,6 C 5,7 C 88 % 1029,3 hPa 0,0 l/m 0,0 km/h (0 Bft) NW 315 0 min 0,000 mm 0 W/m 3,8 C 5,6 C 1,6 km/h (1 Bft) 97 %
16.05.2014 05:20 5,5 C 5,5 C 5,6 C 88 % 1029,2 hPa 0,0 l/m 0,0 km/h (0 Bft) N 0 0 min 0,000 mm 0 W/m 3,7 C 5,5 C 0,0 km/h (0 Bft) 96 %
16.05.2014 05:30 5,5 C 5,5 C 5,5 C 88 % 1029,2 hPa 0,0 l/m 0,0 km/h (0 Bft) NW 315 0 min 0,000 mm 0 W/m 3,7 C 5,5 C 4,8 km/h (1 Bft) 98 %
16.05.2014 05:40 5,4 C 5,4 C 5,5 C 88 % 1029,2 hPa 0,0 l/m 0,0 km/h (0 Bft) NW 315 0 min 0,000 mm 0 W/m 3,6 C 5,4 C 1,6 km/h (1 Bft) 98 %
16.05.2014 05:50 5,3 C 5,3 C 5,4 C 88 % 1029,1 hPa 0,0 l/m 0,0 km/h (0 Bft) N 0 0 min 0,000 mm 5 W/m 3,5 C 5,3 C 0,0 km/h (0 Bft) 98 %
16.05.2014 06:00 5,2 C 5,2 C 5,3 C 88 % 1029,1 hPa 0,0 l/m 0,0 km/h (0 Bft) N 0 0 min 0,000 mm 11 W/m 3,4 C 5,2 C 0,0 km/h (0 Bft) 89 %
16.05.2014 06:10 5,2 C 5,2 C 5,3 C 88 % 1029,1 hPa 0,0 l/m 0,0 km/h (0 Bft) N 0 0 min 0,000 mm 18 W/m 3,4 C 5,2 C 0,0 km/h (0 Bft) 97 %
16.05.2014 06:20 5,2 C 5,2 C 5,3 C 88 % 1029,1 hPa 0,0 l/m 0,0 km/h (0 Bft) N 0 0 min 0,000 mm 21 W/m 3,4 C 5,2 C 0,0 km/h (0 Bft) 98 %
16.05.2014 06:30 5,4 C 5,2 C 5,4 C 88 % 1029,1 hPa 0,0 l/m 0,0 km/h (0 Bft) NW 315 0 min 0,000 mm 25 W/m 3,6 C 5,4 C 3,2 km/h (1 Bft) 97 %
16.05.2014 06:40 5,6 C 5,4 C 5,6 C 88 % 1029,1 hPa 0,0 l/m 0,0 km/h (0 Bft) NW 315 0 min 0,000 mm 30 W/m 3,8 C 5,6 C 3,2 km/h (1 Bft) 98 %
16.05.2014 06:50 5,7 C 5,6 C 5,7 C 88 % 1029,2 hPa 0,0 l/m 0,0 km/h (0 Bft) NW 315 0 min 0,000 mm 35 W/m 3,9 C 5,7 C 1,6 km/h (1 Bft) 98 %
16.05.2014 07:00 5,8 C 5,7 C 5,8 C 87 % 1029,2 hPa 0,0 l/m 0,0 km/h (0 Bft) N-NW 337 0 min 0,000 mm 30 W/m 3,8 C 5,8 C 3,2 km/h (1 Bft) 97 %
16.05.2014 07:10 5,9 C 5,8 C 5,9 C 88 % 1029,2 hPa 0,0 l/m 0,0 km/h (0 Bft) N-NW 337 0 min 0,000 mm 37 W/m 4,1 C 5,9 C 3,2 km/h (1 Bft) 97 %
16.05.2014 07:20 6,1 C 5,9 C 6,1 C 87 % 1029,3 hPa 0,0 l/m 0,0 km/h (0 Bft) N-NW 337 0 min 0,000 mm 40 W/m 4,1 C 6,1 C 4,8 km/h (1 Bft) 98 %
16.05.2014 07:30 6,4 C 6,1 C 6,4 C 88 % 1029,4 hPa 0,0 l/m 0,0 km/h (0 Bft) N 360 0 min 0,000 mm 42 W/m 4,6 C 6,4 C 4,8 km/h (1 Bft) 97 %
16.05.2014 07:40 6,7 C 6,4 C 6,7 C 87 % 1029,4 hPa 0,0 l/m 0,0 km/h (0 Bft) NO 45 0 min 0,000 mm 47 W/m 4,7 C 6,7 C 3,2 km/h (1 Bft) 97 %
16.05.2014 07:50 6,9 C 6,7 C 6,9 C 88 % 1029,4 hPa 0,0 l/m 0,0 km/h (0 Bft) NO 45 0 min 0,000 mm 51 W/m 5,1 C 6,9 C 3,2 km/h (1 Bft) 98 %
16.05.2014 08:00 7,3 C 6,9 C 7,3 C 88 % 1029,4 hPa 0,0 l/m 0,0 km/h (0 Bft) NO 45 0 min 0,025 mm 56 W/m 5,4 C 7,3 C 4,8 km/h (1 Bft) 98 %
16.05.2014 08:10 7,5 C 7,3 C 7,5 C 88 % 1029,4 hPa 0,0 l/m 0,0 km/h (0 Bft) N-NW 337 0 min 0,000 mm 121 W/m 5,6 C 7,5 C 6,4 km/h (2 Bft) 99 %
16.05.2014 08:20 7,8 C 7,5 C 7,8 C 87 % 1029,2 hPa 0,0 l/m 1,6 km/h (1 Bft) NW 315 10 min 0,000 mm 158 W/m 5,8 C 7,8 C 6,4 km/h (2 Bft) 100 %
16.05.2014 08:30 8,2 C 7,5 C 8,2 C 88 % 1029,2 hPa 0,0 l/m 0,3 km/h (0 Bft) N 5 10 min 0,000 mm 343 W/m 6,3 C 8,2 C 1,6 km/h (1 Bft) 100 %
16.05.2014 08:40 8,7 C 8,2 C 8,7 C 87 % 1029,3 hPa 0,0 l/m 1,8 km/h (1 Bft) NW 315 10 min 0,000 mm 452 W/m 6,7 C 8,7 C 8,0 km/h (2 Bft) 98 %
16.05.2014 08:50 9,5 C 8,7 C 9,5 C 87 % 1029,2 hPa 0,0 l/m 2,9 km/h (1 Bft) NW 310 10 min 0,000 mm 192 W/m 7,4 C 9,5 C 11,3 km/h (2 Bft) 97 %
16.05.2014 09:00 9,9 C 9,5 C 9,9 C 88 % 1029,3 hPa 0,0 l/m 1,4 km/h (1 Bft) W-SW 240 0 min 0,102 mm 132 W/m 8,0 C 9,9 C 6,4 km/h (2 Bft) 98 %
16.05.2014 09:10 10,1 C 9,9 C 10,1 C 87 % 1029,3 hPa 0,0 l/m 0,9 km/h (0 Bft) N 360 10 min 0,000 mm 181 W/m 8,0 C 10,1 C 9,7 km/h (2 Bft) 97 %
16.05.2014 09:20 10,2 C 10,1 C 10,2 C 86 % 1029,2 hPa 0,0 l/m 0,2 km/h (0 Bft) NW 319 0 min 0,000 mm 116 W/m 8,0 C 10,2 C 4,8 km/h (1 Bft) 98 %
16.05.2014 09:30 10,2 C 10,2 C 10,3 C 85 % 1029,3 hPa 0,0 l/m 0,7 km/h (0 Bft) N-NO 21 0 min 0,000 mm 70 W/m 7,8 C 10,2 C 8,0 km/h (2 Bft) 97 %
16.05.2014 09:40 10,3 C 10,2 C 10,3 C 85 % 1029,1 hPa 0,0 l/m 0,1 km/h (0 Bft) N-NO 22 10 min 0,000 mm 264 W/m 7,9 C 10,3 C 3,2 km/h (1 Bft) 97 %
16.05.2014 09:50 10,9 C 10,3 C 10,9 C 85 % 1029,0 hPa 0,0 l/m 1,2 km/h (1 Bft) NW 314 10 min 0,000 mm 698 W/m 8,5 C 10,9 C 14,5 km/h (3 Bft) 97 %
16.05.2014 10:00 11,7 C 10,9 C 11,7 C 79 % 1029,0 hPa 0,0 l/m 0,3 km/h (0 Bft) W-SW 238 10 min 0,127 mm 759 W/m 8,2 C 11,7 C 4,8 km/h (1 Bft) 97 %
16.05.2014 10:10 12,2 C 11,7 C 12,2 C 78 % 1028,8 hPa 0,0 l/m 1,7 km/h (1 Bft) N-NO 22 10 min 0,000 mm 731 W/m 8,5 C 12,2 C 11,3 km/h (2 Bft) 98 %
16.05.2014 10:20 13,2 C 12,2 C 13,2 C 74 % 1028,7 hPa 0,0 l/m 1,2 km/h (1 Bft) N-NO 30 10 min 0,000 mm 793 W/m 8,7 C 13,2 C 9,7 km/h (2 Bft) 97 %
16.05.2014 10:30 13,7 C 13,2 C 13,7 C 72 % 1028,5 hPa 0,0 l/m 1,0 km/h (0 Bft) S-SO 159 10 min 0,000 mm 842 W/m 8,7 C 13,7 C 8,0 km/h (2 Bft) 98 %
16.05.2014 10:40 14,3 C 13,7 C 14,3 C 69 % 1028,4 hPa 0,0 l/m 1,7 km/h (1 Bft) SO 139 10 min 0,000 mm 809 W/m 8,7 C 14,3 C 8,0 km/h (2 Bft) 98 %
16.05.2014 10:50 14,3 C 14,3 C 14,3 C 67 % 1028,4 hPa 0,0 l/m 1,6 km/h (1 Bft) NW 313 10 min 0,000 mm 893 W/m 8,3 C 14,3 C 8,0 km/h (2 Bft) 98 %
16.05.2014 11:00 14,4 C 14,3 C 14,5 C 65 % 1028,2 hPa 0,0 l/m 2,8 km/h (1 Bft) NW 307 10 min 0,356 mm 262 W/m 7,9 C 14,4 C 9,7 km/h (2 Bft) 97 %
16.05.2014 11:10 14,2 C 14,2 C 14,4 C 67 % 1028,2 hPa 0,0 l/m 1,1 km/h (1 Bft) SW 222 10 min 0,000 mm 343 W/m 8,2 C 14,2 C 8,0 km/h (2 Bft) 97 %
16.05.2014 11:20 14,4 C 14,2 C 14,5 C 64 % 1028,0 hPa 0,0 l/m 0,6 km/h (0 Bft) O-NO 64 10 min 0,000 mm 192 W/m 7,7 C 14,4 C 4,8 km/h (1 Bft) 99 %
16.05.2014 11:30 14,6 C 14,4 C 14,6 C 63 % 1027,9 hPa 0,0 l/m 0,8 km/h (0 Bft) SW 235 10 min 0,000 mm 882 W/m 7,6 C 14,6 C 8,0 km/h (2 Bft) 100 %
16.05.2014 11:40 15,1 C 14,6 C 15,1 C 60 % 1027,7 hPa 0,0 l/m 1,6 km/h (1 Bft) O-NO 59 10 min 0,000 mm 956 W/m 7,4 C 15,1 C 9,7 km/h (2 Bft) 100 %
16.05.2014 11:50 15,3 C 15,1 C 15,3 C 58 % 1027,7 hPa 0,0 l/m 1,1 km/h (1 Bft) NO 44 10 min 0,000 mm 893 W/m 7,1 C 15,3 C 6,4 km/h (2 Bft) 100 %
16.05.2014 12:00 15,4 C 15,3 C 15,4 C 57 % 1027,7 hPa 0,0 l/m 1,3 km/h (1 Bft) NW 317 10 min 0,355 mm 504 W/m 6,9 C 15,4 C 8,0 km/h (2 Bft) 100 %
16.05.2014 12:10 15,1 C 15,1 C 15,4 C 57 % 1027,6 hPa 0,0 l/m 1,1 km/h (1 Bft) SW 217 10 min 0,000 mm 919 W/m 6,6 C 15,1 C 8,0 km/h (2 Bft) 99 %
16.05.2014 12:20 15,4 C 15,1 C 15,4 C 59 % 1027,5 hPa 0,0 l/m 2,8 km/h (1 Bft) O-SO 108 10 min 0,000 mm 900 W/m 7,4 C 15,4 C 11,3 km/h (2 Bft) 100 %
16.05.2014 12:30 15,9 C 15,4 C 15,9 C 58 % 1027,4 hPa 0,0 l/m 1,6 km/h (1 Bft) O 91 10 min 0,000 mm 870 W/m 7,6 C 15,9 C 8,0 km/h (2 Bft) 100 %
16.05.2014 12:40 16,4 C 15,9 C 16,4 C 59 % 1027,3 hPa 0,0 l/m 1,2 km/h (1 Bft) O-NO 70 10 min 0,000 mm 921 W/m 8,4 C 16,4 C 9,7 km/h (2 Bft) 100 %
16.05.2014 12:50 16,6 C 16,4 C 16,6 C 53 % 1027,1 hPa 0,0 l/m 2,1 km/h (1 Bft) N-NW 336 10 min 0,000 mm 946 W/m 7,0 C 16,6 C 9,7 km/h (2 Bft) 100 %
16.05.2014 13:00 17,1 C 16,6 C 17,1 C 53 % 1027,0 hPa 0,0 l/m 2,9 km/h (1 Bft) NO 49 10 min 0,483 mm 909 W/m 7,4 C 17,1 C 9,7 km/h (2 Bft) 100 %
16.05.2014 13:10 17,1 C 17,1 C 17,2 C 49 % 1026,8 hPa 0,0 l/m 2,3 km/h (1 Bft) SO 124 10 min 0,000 mm 782 W/m 6,3 C 17,1 C 8,0 km/h (2 Bft) 100 %
16.05.2014 13:20 16,9 C 16,9 C 17,1 C 54 % 1026,8 hPa 0,0 l/m 1,4 km/h (1 Bft) SW 220 10 min 0,000 mm 680 W/m 7,5 C 16,9 C 17,7 km/h (3 Bft) 100 %
16.05.2014 13:30 16,7 C 16,7 C 16,9 C 53 % 1026,7 hPa 0,0 l/m 1,2 km/h (1 Bft) W 279 10 min 0,000 mm 552 W/m 7,1 C 16,7 C 11,3 km/h (2 Bft) 100 %
16.05.2014 13:40 16,9 C 16,7 C 16,9 C 54 % 1026,6 hPa 0,0 l/m 0,6 km/h (0 Bft) N-NO 18 10 min 0,000 mm 526 W/m 7,5 C 16,9 C 6,4 km/h (2 Bft) 100 %
16.05.2014 13:50 16,6 C 16,6 C 16,9 C 52 % 1026,6 hPa 0,0 l/m 0,5 km/h (0 Bft) O 79 10 min 0,000 mm 383 W/m 6,7 C 16,6 C 6,4 km/h (2 Bft) 100 %
16.05.2014 14:00 16,2 C 16,2 C 16,6 C 52 % 1026,5 hPa 0,0 l/m 1,7 km/h (1 Bft) S-SO 149 10 min 0,355 mm 686 W/m 6,3 C 16,2 C 11,3 km/h (2 Bft) 100 %
16.05.2014 14:10 16,3 C 16,2 C 16,3 C 51 % 1026,5 hPa 0,0 l/m 1,2 km/h (1 Bft) SW 217 10 min 0,000 mm 981 W/m 6,1 C 16,3 C 14,5 km/h (3 Bft) 99 %
16.05.2014 14:20 17,0 C 16,3 C 17,0 C 53 % 1026,4 hPa 0,0 l/m 1,1 km/h (1 Bft) O 92 10 min 0,000 mm 1062 W/m 7,4 C 17,0 C 11,3 km/h (2 Bft) 99 %
16.05.2014 14:30 17,4 C 17,0 C 17,5 C 53 % 1026,3 hPa 0,0 l/m 2,0 km/h (1 Bft) W-SW 250 10 min 0,000 mm 225 W/m 7,7 C 17,4 C 11,3 km/h (2 Bft) 100 %
16.05.2014 14:40 17,4 C 17,3 C 17,4 C 49 % 1026,1 hPa 0,0 l/m 0,2 km/h (0 Bft) N 11 10 min 0,000 mm 759 W/m 6,6 C 17,4 C 3,2 km/h (1 Bft) 99 %
16.05.2014 14:50 17,9 C 17,4 C 17,9 C 48 % 1026,0 hPa 0,0 l/m 1,2 km/h (1 Bft) NO 50 10 min 0,000 mm 863 W/m 6,7 C 17,9 C 11,3 km/h (2 Bft) 99 %
16.05.2014 15:00 18,2 C 17,9 C 18,2 C 48 % 1025,8 hPa 0,0 l/m 1,0 km/h (0 Bft) NO 48 10 min 0,432 mm 831 W/m 7,0 C 18,2 C 8,0 km/h (2 Bft) 99 %
16.05.2014 15:10 18,3 C 18,2 C 18,3 C 49 % 1025,7 hPa 0,0 l/m 1,2 km/h (1 Bft) W-NW 299 10 min 0,000 mm 833 W/m 7,4 C 18,3 C 9,7 km/h (2 Bft) 99 %
16.05.2014 15:20 18,6 C 18,3 C 18,6 C 47 % 1025,4 hPa 0,0 l/m 1,3 km/h (1 Bft) NW 304 10 min 0,000 mm 837 W/m 7,1 C 18,6 C 8,0 km/h (2 Bft) 99 %
16.05.2014 15:30 18,8 C 18,6 C 18,8 C 47 % 1025,3 hPa 0,0 l/m 2,0 km/h (1 Bft) N-NW 341 10 min 0,000 mm 835 W/m 7,2 C 18,8 C 16,1 km/h (3 Bft) 100 %
16.05.2014 15:40 18,8 C 18,8 C 18,9 C 44 % 1025,3 hPa 0,0 l/m 0,6 km/h (0 Bft) W-NW 302 10 min 0,000 mm 874 W/m 6,3 C 18,8 C 6,4 km/h (2 Bft) 100 %
16.05.2014 15:50 18,6 C 18,6 C 18,9 C 46 % 1025,1 hPa 0,0 l/m 5,9 km/h (2 Bft) N-NW 348 10 min 0,000 mm 861 W/m 6,8 C 18,6 C 19,3 km/h (3 Bft) 100 %
16.05.2014 16:00 18,6 C 18,5 C 18,6 C 46 % 1025,0 hPa 0,0 l/m 1,7 km/h (1 Bft) NO 56 10 min 0,432 mm 800 W/m 6,8 C 18,6 C 14,5 km/h (3 Bft) 100 %
16.05.2014 16:10 19,0 C 18,6 C 19,0 C 46 % 1024,8 hPa 0,0 l/m 0,3 km/h (0 Bft) N-NW 343 10 min 0,000 mm 798 W/m 7,1 C 19,0 C 6,4 km/h (2 Bft) 100 %
16.05.2014 16:20 19,1 C 19,0 C 19,1 C 44 % 1024,6 hPa 0,0 l/m 1,0 km/h (0 Bft) S-SW 195 10 min 0,000 mm 197 W/m 6,6 C 19,1 C 11,3 km/h (2 Bft) 100 %
16.05.2014 16:30 18,8 C 18,8 C 19,1 C 48 % 1024,6 hPa 0,0 l/m 0,6 km/h (0 Bft) S-SO 165 10 min 0,000 mm 761 W/m 7,6 C 18,8 C 9,7 km/h (2 Bft) 100 %
16.05.2014 16:40 18,7 C 18,7 C 18,9 C 47 % 1024,6 hPa 0,0 l/m 0,7 km/h (0 Bft) O-NO 60 10 min 0,000 mm 178 W/m 7,2 C 18,7 C 9,7 km/h (2 Bft) 99 %
16.05.2014 16:50 18,3 C 18,3 C 18,7 C 48 % 1024,5 hPa 0,0 l/m 0,4 km/h (0 Bft) W-SW 242 10 min 0,000 mm 696 W/m 7,1 C 18,3 C 6,4 km/h (2 Bft) 99 %
16.05.2014 17:00 18,3 C 18,2 C 18,3 C 47 % 1024,3 hPa 0,0 l/m 0,9 km/h (0 Bft) W-NW 298 10 min 0,305 mm 315 W/m 6,8 C 18,3 C 8,0 km/h (2 Bft) 97 %
16.05.2014 17:10 18,6 C 18,3 C 18,6 C 46 % 1024,2 hPa 0,0 l/m 1,7 km/h (1 Bft) NW 316 10 min 0,000 mm 218 W/m 6,8 C 18,6 C 11,3 km/h (2 Bft) 98 %
16.05.2014 17:20 18,3 C 18,3 C 18,7 C 48 % 1024,1 hPa 0,0 l/m 1,2 km/h (1 Bft) N-NO 27 0 min 0,000 mm 141 W/m 7,1 C 18,3 C 9,7 km/h (2 Bft) 98 %
16.05.2014 17:30 18,2 C 18,1 C 18,3 C 47 % 1024,1 hPa 0,0 l/m 0,5 km/h (0 Bft) NW 320 10 min 0,000 mm 276 W/m 6,7 C 18,2 C 6,4 km/h (2 Bft) 99 %
16.05.2014 17:40 18,4 C 18,2 C 18,4 C 46 % 1023,9 hPa 0,0 l/m 0,6 km/h (0 Bft) O-NO 67 10 min 0,000 mm 214 W/m 6,6 C 18,4 C 6,4 km/h (2 Bft) 99 %
16.05.2014 17:50 18,4 C 18,4 C 18,4 C 48 % 1023,8 hPa 0,0 l/m 0,6 km/h (0 Bft) S-SO 161 10 min 0,000 mm 457 W/m 7,2 C 18,4 C 8,0 km/h (2 Bft) 99 %
16.05.2014 18:00 18,4 C 18,4 C 18,4 C 46 % 1023,8 hPa 0,0 l/m 0,3 km/h (0 Bft) S-SW 206 10 min 0,178 mm 251 W/m 6,6 C 18,4 C 3,2 km/h (1 Bft) 100 %
16.05.2014 18:10 18,1 C 18,1 C 18,4 C 46 % 1023,8 hPa 0,0 l/m 0,6 km/h (0 Bft) S-SO 163 0 min 0,000 mm 69 W/m 6,3 C 18,1 C 8,0 km/h (2 Bft) 100 %
16.05.2014 18:20 17,6 C 17,6 C 18,1 C 46 % 1023,6 hPa 0,0 l/m 0,4 km/h (0 Bft) NW 304 10 min 0,000 mm 155 W/m 5,8 C 17,6 C 6,4 km/h (2 Bft) 100 %
16.05.2014 18:30 17,4 C 17,4 C 17,6 C 48 % 1023,5 hPa 0,0 l/m 0,8 km/h (0 Bft) NW 313 0 min 0,000 mm 81 W/m 6,3 C 17,4 C 8,0 km/h (2 Bft) 100 %
16.05.2014 18:40 17,0 C 17,0 C 17,4 C 50 % 1023,5 hPa 0,0 l/m 0,2 km/h (0 Bft) N-NW 347 0 min 0,000 mm 98 W/m 6,5 C 17,0 C 8,0 km/h (2 Bft) 100 %
16.05.2014 18:50 16,6 C 16,6 C 17,0 C 53 % 1023,4 hPa 0,0 l/m 0,4 km/h (0 Bft) W-SW 251 0 min 0,000 mm 74 W/m 7,0 C 16,6 C 6,4 km/h (2 Bft) 99 %
16.05.2014 19:00 16,4 C 16,4 C 16,6 C 52 % 1023,5 hPa 0,0 l/m 0,1 km/h (0 Bft) W-SW 240 10 min 0,101 mm 292 W/m 6,5 C 16,4 C 4,8 km/h (1 Bft) 100 %
16.05.2014 19:10 16,5 C 16,4 C 16,6 C 52 % 1023,4 hPa 0,0 l/m 0,2 km/h (0 Bft) W-SW 240 0 min 0,000 mm 65 W/m 6,6 C 16,5 C 4,8 km/h (1 Bft) 100 %
16.05.2014 19:20 16,1 C 16,1 C 16,5 C 54 % 1023,6 hPa 0,0 l/m 0,3 km/h (0 Bft) S-SW 198 0 min 0,000 mm 74 W/m 6,8 C 16,1 C 4,8 km/h (1 Bft) 100 %
16.05.2014 19:30 15,8 C 15,8 C 16,1 C 56 % 1023,5 hPa 0,0 l/m 0,0 km/h (0 Bft) S-SW 198 0 min 0,000 mm 65 W/m 7,0 C 15,8 C 1,6 km/h (1 Bft) 100 %
16.05.2014 19:40 15,7 C 15,7 C 15,8 C 56 % 1023,5 hPa 0,0 l/m 0,0 km/h (0 Bft) S-SW 198 0 min 0,000 mm 51 W/m 6,9 C 15,7 C 1,6 km/h (1 Bft) 99 %
16.05.2014 19:50 15,4 C 15,4 C 15,7 C 55 % 1023,5 hPa 0,0 l/m 0,0 km/h (0 Bft) S-SW 197 0 min 0,000 mm 51 W/m 6,4 C 15,4 C 1,6 km/h (1 Bft) 99 %
16.05.2014 20:00 15,1 C 15,1 C 15,4 C 57 % 1023,5 hPa 0,0 l/m 0,0 km/h (0 Bft) S-SW 197 0 min 0,051 mm 46 W/m 6,6 C 15,1 C 1,6 km/h (1 Bft) 100 %
16.05.2014 20:10 15,1 C 15,1 C 15,1 C 56 % 1023,5 hPa 0,0 l/m 0,0 km/h (0 Bft) S-SW 197 0 min 0,000 mm 37 W/m 6,4 C 15,1 C 0,0 km/h (0 Bft) 100 %
16.05.2014 20:20 14,7 C 14,7 C 15,1 C 58 % 1023,6 hPa 0,0 l/m 0,0 km/h (0 Bft) W-SW 243 0 min 0,000 mm 19 W/m 6,5 C 14,7 C 1,6 km/h (1 Bft) 100 %
16.05.2014 20:30 14,4 C 14,4 C 14,7 C 58 % 1023,7 hPa 0,0 l/m 0,0 km/h (0 Bft) W-SW 243 0 min 0,000 mm 19 W/m 6,2 C 14,4 C 0,0 km/h (0 Bft) 99 %
16.05.2014 20:40 14,0 C 14,0 C 14,4 C 59 % 1023,7 hPa 0,0 l/m 0,0 km/h (0 Bft) SW 221 0 min 0,000 mm 18 W/m 6,1 C 14,0 C 1,6 km/h (1 Bft) 99 %
16.05.2014 20:50 13,7 C 13,7 C 14,0 C 59 % 1023,7 hPa 0,0 l/m 0,1 km/h (0 Bft) SW 221 0 min 0,000 mm 9 W/m 5,8 C 13,7 C 1,6 km/h (1 Bft) 100 %
16.05.2014 21:00 13,4 C 13,4 C 13,7 C 58 % 1023,8 hPa 0,0 l/m 0,0 km/h (0 Bft) O-SO 102 0 min 0,025 mm 0 W/m 5,3 C 13,4 C 1,6 km/h (1 Bft) 100 %
16.05.2014 21:10 13,1 C 13,1 C 13,3 C 59 % 1023,9 hPa 0,0 l/m 0,0 km/h (0 Bft) O-SO 112 0 min 0,000 mm 0 W/m 5,3 C 13,1 C 1,6 km/h (1 Bft) 100 %
16.05.2014 21:20 12,7 C 12,7 C 13,1 C 60 % 1023,9 hPa 0,0 l/m 0,0 km/h (0 Bft) N 0 0 min 0,000 mm 0 W/m 5,1 C 12,7 C 0,0 km/h (0 Bft) 100 %
16.05.2014 21:30 12,4 C 12,4 C 12,7 C 61 % 1024,0 hPa 0,0 l/m 0,0 km/h (0 Bft) N 0 0 min 0,000 mm 0 W/m 5,1 C 12,4 C 0,0 km/h (0 Bft) 100 %
16.05.2014 21:40 12,3 C 12,2 C 12,4 C 61 % 1023,9 hPa 0,0 l/m 0,0 km/h (0 Bft) N 0 0 min 0,000 mm 0 W/m 5,0 C 12,3 C 0,0 km/h (0 Bft) 100 %
16.05.2014 21:50 12,1 C 12,1 C 12,2 C 62 % 1023,8 hPa 0,0 l/m 0,0 km/h (0 Bft) N 0 0 min 0,000 mm 0 W/m 5,0 C 12,1 C 0,0 km/h (0 Bft) 100 %
16.05.2014 22:00 11,8 C 11,8 C 12,1 C 63 % 1023,8 hPa 0,0 l/m 0,0 km/h (0 Bft) N 0 0 min 0,000 mm 0 W/m 5,0 C 11,8 C 0,0 km/h (0 Bft) 100 %
16.05.2014 22:10 11,7 C 11,7 C 11,9 C 62 % 1023,9 hPa 0,0 l/m 0,0 km/h (0 Bft) N 0 0 min 0,000 mm 0 W/m 4,7 C 11,7 C 0,0 km/h (0 Bft) 100 %
16.05.2014 22:20 11,6 C 11,6 C 11,7 C 65 % 1023,9 hPa 0,0 l/m 0,0 km/h (0 Bft) N 0 0 min 0,000 mm 0 W/m 5,2 C 11,6 C 0,0 km/h (0 Bft) 100 %
16.05.2014 22:30 11,4 C 11,4 C 11,6 C 66 % 1023,8 hPa 0,0 l/m 0,0 km/h (0 Bft) N 0 0 min 0,000 mm 0 W/m 5,3 C 11,4 C 0,0 km/h (0 Bft) 100 %
16.05.2014 22:40 11,2 C 11,2 C 11,4 C 66 % 1023,8 hPa 0,0 l/m 0,0 km/h (0 Bft) N 0 0 min 0,000 mm 0 W/m 5,1 C 11,2 C 0,0 km/h (0 Bft) 100 %
16.05.2014 22:50 10,9 C 10,9 C 11,2 C 66 % 1023,8 hPa 0,0 l/m 0,0 km/h (0 Bft) N 0 0 min 0,000 mm 0 W/m 4,8 C 10,9 C 0,0 km/h (0 Bft) 100 %
16.05.2014 23:00 10,6 C 10,6 C 10,9 C 68 % 1023,8 hPa 0,0 l/m 0,0 km/h (0 Bft) N 0 0 min 0,025 mm 0 W/m 4,9 C 10,6 C 0,0 km/h (0 Bft) 100 %
16.05.2014 23:10 10,4 C 10,3 C 10,6 C 68 % 1023,7 hPa 0,0 l/m 0,0 km/h (0 Bft) N 0 0 min 0,000 mm 0 W/m 4,8 C 10,4 C 0,0 km/h (0 Bft) 100 %
16.05.2014 23:20 10,1 C 10,1 C 10,3 C 70 % 1023,5 hPa 0,0 l/m 0,0 km/h (0 Bft) N 0 0 min 0,000 mm 0 W/m 4,9 C 10,1 C 0,0 km/h (0 Bft) 100 %
16.05.2014 23:30 9,8 C 9,8 C 10,1 C 70 % 1023,5 hPa 0,0 l/m 0,0 km/h (0 Bft) N 0 0 min 0,000 mm 0 W/m 4,6 C 9,8 C 0,0 km/h (0 Bft) 100 %
16.05.2014 23:40 9,5 C 9,5 C 9,8 C 74 % 1023,5 hPa 0,0 l/m 0,0 km/h (0 Bft) O-SO 112 0 min 0,000 mm 0 W/m 5,1 C 9,5 C 3,2 km/h (1 Bft) 100 %
16.05.2014 23:50 9,1 C 9,1 C 9,5 C 75 % 1023,5 hPa 0,0 l/m 0,0 km/h (0 Bft) N 0 0 min 0,000 mm 0 W/m 4,9 C 9,1 C 0,0 km/h (0 Bft) 99 %
_ Min-Zeit 06:00 06:00 06:00 15:40 18:50 - 00:00 - - - - - 06:00 06:00 03:50 01:30
Minimum _ 5,2 C 5,2 C 5,3 C 44 % 1023,4 hPa - 0,0 km/h (0 Bft) - - - - - 3,4 C 5,2 C 0,0 km/h (0 Bft) 89 %
_ Max-Zeit 16:20 16:20 16:20 02:50 00:00 02:00 15:50 - - 08:20 13:00 14:20 10:30 16:20 15:50 08:30
Maximum _ 19,1 C 19,0 C 19,1 C 88 % 1031,3 hPa 0,2 l/m 5,9 km/h
N-NW (2 Bft)
- - 10 min 0,483 mm 1062 W/m 8,7 C 19,1 C 19,3 km/h
NW (3 Bft)
100 %
Durchschnitt _ 12,0 C 11,9 C 12,2 C 69 % 1027,1 hPa #0,4 l/m 0,5 km/h (0 Bft) NW - #9:30 h #3,352 mm 402 W/m 6,1 C 12,0 C 5,0 km/h (1 Bft) 99 %
PRIVATE WETTERSTATION BILLIGHEIM-ALLFELD - www.neckar-odenwald-wetter.de - Holger Sonntag